Time;durP1;ratioP1;P1;durP2;ratioP2;P2;SDS_P1;SDS_P2;PMS_P1;PMS_P2;Temp;Humidity;BMP_temperature;BMP_pressure;BME280_temperature;BME280_humidity;BME280_pressure;Samples;Min_cycle;Max_cycle;Signal;HPM_P1;HPM_P2
2022/10/21 00:01:50;;;;;;;8.68;7.78;;;;;;;10.74;71.81;99980.88;10584283;28;20040;-74
2022/10/21 00:06:51;;;;;;;13.00;7.35;;;;;;;10.60;72.43;99987.44;10583740;28;20514;-74
2022/10/21 00:11:53;;;;;;;8.30;7.68;;;;;;;10.37;74.86;99997.84;10583513;28;20039;-74
2022/10/21 00:16:54;;;;;;;8.75;7.95;;;;;;;10.47;74.68;99988.75;10583441;28;20036;-73
2022/10/21 00:21:56;;;;;;;8.70;8.00;;;;;;;10.40;75.01;99973.22;10582868;28;20052;-74
2022/10/21 00:26:57;;;;;;;9.52;7.35;;;;;;;10.40;75.02;99965.31;10582475;28;20064;-74
2022/10/21 00:31:59;;;;;;;7.75;7.10;;;;;;;10.62;71.88;99966.34;10581866;28;20035;-75
2022/10/21 00:37:01;;;;;;;8.60;7.90;;;;;;;10.52;72.24;99959.69;10582326;28;20039;-75
2022/10/21 00:42:05;;;;;;;8.05;7.43;;;;;;;10.50;72.23;99959.75;10564385;28;20075;-74
2022/10/21 00:47:12;;;;;;;7.95;7.15;;;;;;;10.47;72.85;99959.84;10564914;28;20039;-75
2022/10/21 00:52:18;;;;;;;8.15;7.35;;;;;;;10.57;71.71;99965.66;10585611;28;20094;-75
2022/10/21 00:57:22;;;;;;;9.30;8.23;;;;;;;10.40;74.40;99929.41;10589549;28;20032;-75
2022/10/21 01:02:24;;;;;;;9.18;8.38;;;;;;;10.48;74.04;99911.63;10589384;28;20537;-74
2022/10/21 01:07:26;;;;;;;8.82;8.13;;;;;;;10.36;75.37;99901.53;10588605;28;20479;-73
2022/10/21 01:12:47;;;;;;;9.88;9.02;;;;;;;10.25;76.87;99901.00;10588896;28;20043;-73
2022/10/21 01:17:59;;;;;;;10.27;9.32;;;;;;;10.24;76.50;99892.28;10587975;28;20119;-74
2022/10/21 01:23:19;;;;;;;9.75;9.00;;;;;;;10.17;76.80;99884.59;10588628;28;20082;-75
2022/10/21 01:29:13;;;;;;;8.48;7.88;;;;;;;10.16;76.38;99875.88;10588745;28;20078;-74
2022/10/21 01:34:25;;;;;;;9.38;8.27;;;;;;;10.14;77.39;99850.56;10587802;28;20043;-74
2022/10/21 01:39:36;;;;;;;10.75;8.73;;;;;;;10.16;75.27;99849.59;10587383;28;20050;-74
2022/10/21 01:45:16;;;;;;;9.68;8.95;;;;;;;10.10;74.58;99844.56;10587536;28;20059;-73
2022/10/21 01:50:28;;;;;;;9.45;8.57;;;;;;;10.21;73.30;99823.19;10359772;28;20062;-73
2022/10/21 01:55:31;;;;;;;8.93;8.02;;;;;;;10.16;74.39;99815.47;10375523;28;20054;-73
2022/10/21 02:00:35;;;;;;;9.27;8.55;;;;;;;10.11;74.56;99822.63;10376237;28;20137;-74
2022/10/21 02:05:37;;;;;;;9.60;8.80;;;;;;;10.18;73.49;99816.28;10374712;28;20056;-73
2022/10/21 02:10:44;;;;;;;11.43;8.85;;;;;;;10.10;74.84;99819.16;10375620;28;20073;-74
2022/10/21 02:15:46;;;;;;;9.63;8.82;;;;;;;10.17;75.44;99787.41;10375332;28;20069;-73
2022/10/21 02:20:53;;;;;;;9.27;8.57;;;;;;;10.17;76.11;99800.56;10373841;28;20077;-74
2022/10/21 02:25:55;;;;;;;9.27;8.38;;;;;;;10.02;77.35;99810.66;10537163;28;20056;-74
2022/10/21 02:31:13;;;;;;;9.30;8.50;;;;;;;10.06;76.81;99809.66;10585276;28;20082;-74
2022/10/21 02:36:38;;;;;;;9.20;8.45;;;;;;;10.02;78.22;99805.41;10584734;28;20047;-73
2022/10/21 02:41:42;;;;;;;11.02;9.98;;;;;;;10.01;78.26;99787.94;10586083;28;20131;-73
2022/10/21 02:46:45;;;;;;;10.00;9.15;;;;;;;10.14;78.71;99795.41;10585410;28;20039;-74
2022/10/21 02:51:47;;;;;;;10.07;9.20;;;;;;;10.10;78.54;99808.66;10586390;28;20077;-74
2022/10/21 02:56:48;;;;;;;9.90;8.98;;;;;;;10.06;79.57;99807.03;10584575;28;20070;-73
2022/10/21 03:01:50;;;;;;;10.82;9.90;;;;;;;10.03;81.55;99786.13;10584964;28;20036;-74
2022/10/21 03:06:52;;;;;;;10.05;9.20;;;;;;;10.04;81.60;99781.72;10584812;28;20036;-73
2022/10/21 03:11:53;;;;;;;10.95;9.52;;;;;;;10.05;81.95;99779.06;10584055;28;20092;-74
2022/10/21 03:16:55;;;;;;;10.20;9.30;;;;;;;10.13;82.03;99780.56;10583826;28;20039;-73
2022/10/21 03:21:56;;;;;;;11.63;10.68;;;;;;;10.23;81.09;99788.09;10584657;28;20097;-74
2022/10/21 03:26:58;;;;;;;11.50;10.50;;;;;;;10.15;80.23;99797.13;10582889;28;20078;-73
2022/10/21 03:31:59;;;;;;;12.50;11.40;;;;;;;10.10;81.65;99782.38;10583248;28;20104;-74
2022/10/21 03:37:01;;;;;;;11.00;10.20;;;;;;;10.13;81.00;99776.16;10564384;28;20032;-73
2022/10/21 03:42:03;;;;;;;12.25;11.15;;;;;;;10.14;81.70;99767.38;10582721;28;20039;-73
2022/10/21 03:47:04;;;;;;;11.88;10.80;;;;;;;9.98;81.53;99767.03;10582882;28;20488;-73
2022/10/21 03:52:06;;;;;;;13.20;12.10;;;;;;;9.89;81.97;99777.84;10582346;28;20167;-73
2022/10/21 03:57:07;;;;;;;13.20;12.02;;;;;;;9.81;82.22;99770.22;10564182;28;20040;-73
2022/10/21 04:02:09;;;;;;;13.75;12.40;;;;;;;9.81;82.11;99750.97;10583964;28;20108;-74
2022/10/21 04:07:10;;;;;;;13.40;12.35;;;;;;;9.91;80.81;99752.38;10583853;28;20050;-74
2022/10/21 04:12:12;;;;;;;12.85;11.63;;;;;;;9.78;81.81;99725.72;10582301;28;20122;-74
2022/10/21 04:17:14;;;;;;;13.20;12.30;;;;;;;9.78;81.18;99757.22;10581691;28;20044;-74
2022/10/21 04:22:15;;;;;;;12.98;11.82;;;;;;;9.68;81.87;99733.94;10582240;28;20067;-74
2022/10/21 04:27:17;;;;;;;14.73;13.52;;;;;;;9.58;82.02;99725.50;10584644;28;20068;-74
2022/10/21 04:32:18;;;;;;;14.55;13.15;;;;;;;9.50;82.94;99733.59;10589615;28;20084;-74
2022/10/21 04:37:20;;;;;;;14.20;12.90;;;;;;;9.56;82.74;99711.56;10532684;22;20072;-70
2022/10/21 04:42:22;;;;;;;14.23;12.93;;;;;;;9.53;82.48;99714.31;10400723;28;20052;-71
2022/10/21 04:47:24;;;;;;;13.90;12.80;;;;;;;9.44;83.69;99725.94;10417704;28;20034;-71
2022/10/21 04:52:25;;;;;;;14.32;13.13;;;;;;;9.46;83.09;99705.75;10417617;28;20046;-70
2022/10/21 04:57:27;;;;;;;14.27;12.88;;;;;;;9.42;83.60;99705.91;10417218;28;20045;-71
2022/10/21 05:02:29;;;;;;;13.50;12.15;;;;;;;9.30;84.62;99709.81;10399228;28;20073;-71
2022/10/21 05:07:30;;;;;;;13.82;12.73;;;;;;;9.41;84.18;99688.47;10416547;28;20099;-71
2022/10/21 05:12:32;;;;;;;14.48;13.30;;;;;;;9.27;84.57;99683.66;10415250;28;20049;-71
2022/10/21 05:17:35;;;;;;;14.75;13.23;;;;;;;9.38;83.95;99693.78;10397836;28;20136;-71
2022/10/21 05:22:37;;;;;;;16.25;14.68;;;;;;;9.29;85.52;99666.94;10415146;28;20045;-70
2022/10/21 05:27:39;;;;;;;16.33;14.68;;;;;;;9.34;85.02;99653.69;10396811;28;20037;-72
2022/10/21 05:32:41;;;;;;;16.40;15.13;;;;;;;9.33;84.83;99663.31;10415076;28;20102;-71
2022/10/21 05:37:42;;;;;;;16.10;15.00;;;;;;;9.30;85.82;99654.72;10412942;28;20053;-72
2022/10/21 05:42:44;;;;;;;15.82;14.57;;;;;;;9.29;85.84;99660.84;10414600;28;20094;-71
2022/10/21 05:47:46;;;;;;;16.02;14.85;;;;;;;9.31;85.60;99659.06;10414621;28;20091;-71
2022/10/21 05:52:47;;;;;;;15.40;13.52;;;;;;;9.46;85.46;99670.78;10415435;28;20509;-70
2022/10/21 05:57:49;;;;;;;14.93;13.68;;;;;;;9.41;85.02;99667.47;10395787;28;20064;-71
2022/10/21 06:02:51;;;;;;;14.68;13.25;;;;;;;9.38;85.77;99665.78;10414543;28;20041;-71
2022/10/21 06:07:53;;;;;;;14.70;13.52;;;;;;;9.33;86.47;99667.72;10414227;28;20038;-71
2022/10/21 06:12:55;;;;;;;14.40;13.15;;;;;;;9.45;85.66;99674.34;10414826;28;20033;-71
2022/10/21 06:17:56;;;;;;;14.13;13.02;;;;;;;9.52;85.41;99671.47;10414503;28;20108;-72
2022/10/21 06:22:59;;;;;;;14.35;13.00;;;;;;;9.42;86.09;99663.94;10413768;28;20052;-72
2022/10/21 06:28:01;;;;;;;14.57;12.95;;;;;;;9.48;85.46;99667.22;10413211;28;20086;-71
2022/10/21 06:33:02;;;;;;;14.68;13.45;;;;;;;9.46;86.35;99683.91;10413105;28;20046;-71
2022/10/21 06:38:04;;;;;;;16.58;13.93;;;;;;;9.50;85.52;99689.00;10412893;28;20033;-71
2022/10/21 06:43:06;;;;;;;15.52;13.82;;;;;;;9.45;86.25;99698.78;10413008;28;20048;-71
2022/10/21 06:48:07;;;;;;;14.40;13.10;;;;;;;9.53;85.62;99699.41;10412664;28;20051;-72
2022/10/21 06:53:09;;;;;;;13.80;12.40;;;;;;;9.75;84.32;99696.09;10411980;28;20042;-71
2022/10/21 06:58:11;;;;;;;14.73;13.15;;;;;;;9.71;84.82;99695.31;10395269;28;20053;-71
2022/10/21 07:03:12;;;;;;;14.70;13.60;;;;;;;9.73;85.34;99696.09;10412207;28;20517;-72
2022/10/21 07:08:14;;;;;;;15.10;13.75;;;;;;;9.83;85.90;99699.31;10411007;28;20049;-72
2022/10/21 07:13:16;;;;;;;14.70;13.18;;;;;;;10.05;84.52;99695.03;10411685;28;20412;-71
2022/10/21 07:18:22;;;;;;;13.63;12.63;;;;;;;10.22;83.63;99689.16;10411558;28;20038;-70
2022/10/21 07:23:24;;;;;;;14.13;12.75;;;;;;;10.35;82.78;99681.72;10410634;28;20071;-70
2022/10/21 07:28:25;;;;;;;13.45;12.45;;;;;;;10.51;82.22;99677.63;10392725;28;20045;-70
2022/10/21 07:33:27;;;;;;;13.35;12.32;;;;;;;10.57;81.43;99672.13;10393893;28;20041;-70
2022/10/21 07:38:29;;;;;;;13.73;12.73;;;;;;;10.58;81.34;99670.34;10411030;28;20052;-70
2022/10/21 07:43:31;;;;;;;13.52;12.43;;;;;;;10.60;80.35;99665.91;10393381;28;20532;-71
2022/10/21 07:48:33;;;;;;;12.63;11.48;;;;;;;10.63;80.77;99664.97;10386490;28;20050;-69
2022/10/21 07:53:35;;;;;;;12.93;11.80;;;;;;;10.77;80.42;99674.03;10410432;28;20049;-71
2022/10/21 07:58:37;;;;;;;13.98;12.80;;;;;;;10.73;82.04;99666.31;10392170;28;20045;-70
2022/10/21 08:03:39;;;;;;;12.40;11.23;;;;;;;11.05;79.95;99651.91;10414840;28;20491;-70
2022/10/21 08:08:41;;;;;;;12.52;11.38;;;;;;;11.05;79.56;99647.50;10399622;28;20041;-71
2022/10/21 08:13:43;;;;;;;12.90;11.68;;;;;;;11.17;79.15;99655.81;10416695;28;20053;-71
2022/10/21 08:18:44;;;;;;;10.88;10.18;;;;;;;11.29;79.20;99650.06;10417067;28;20034;-71
2022/10/21 08:23:46;;;;;;;11.55;10.50;;;;;;;11.40;78.17;99652.25;10382783;28;20053;-71
2022/10/21 08:28:48;;;;;;;11.90;10.75;;;;;;;11.38;78.36;99649.69;10416452;28;20063;-70
2022/10/21 08:33:50;;;;;;;12.05;10.60;;;;;;;11.55;78.20;99641.06;10417622;28;20124;-70
2022/10/21 08:38:52;;;;;;;10.85;9.88;;;;;;;11.78;77.97;99638.34;10399362;28;20136;-70
2022/10/21 08:43:58;;;;;;;10.90;9.90;;;;;;;11.87;76.13;99631.84;10398651;28;20399;-70
2022/10/21 08:49:22;;;;;;;10.52;9.43;;;;;;;11.99;74.79;99630.44;10417449;28;20094;-71
2022/10/21 08:54:54;;;;;;;14.27;9.93;;;;;;;12.29;73.46;99615.06;10415666;28;20490;-72
2022/10/21 08:59:56;;;;;;;10.13;9.35;;;;;;;12.32;72.85;99599.09;10398808;28;20050;-71
2022/10/21 09:05:19;;;;;;;9.32;8.63;;;;;;;12.24;73.92;99607.34;10415855;28;20548;-71
2022/10/21 09:10:45;;;;;;;9.77;9.15;;;;;;;12.44;73.20;99601.19;10413858;28;20049;-71
2022/10/21 09:16:06;;;;;;;10.32;8.60;;;;;;;12.50;71.15;99615.84;10415806;28;20065;-72
2022/10/21 09:21:52;;;;;;;11.23;10.05;;;;;;;12.36;71.61;99598.03;10415500;28;20406;-71
2022/10/21 09:27:11;;;;;;;9.60;8.93;;;;;;;12.41;72.43;99593.41;10415307;28;20406;-71
2022/10/21 09:32:17;;;;;;;10.23;8.88;;;;;;;12.56;71.53;99582.13;10397923;28;20049;-71
2022/10/21 09:37:40;;;;;;;10.30;9.43;;;;;;;12.46;71.35;99572.97;10415390;28;20071;-71
2022/10/21 09:42:43;;;;;;;10.45;9.52;;;;;;;12.35;71.63;99577.88;10414716;28;20052;-70
2022/10/21 09:48:09;;;;;;;10.38;9.48;;;;;;;12.57;71.38;99575.06;10415863;28;20495;-70
2022/10/21 09:53:16;;;;;;;10.50;9.50;;;;;;;12.81;70.40;99573.06;10394280;28;20140;-72
2022/10/21 09:58:26;;;;;;;10.73;9.73;;;;;;;13.09;70.36;99585.75;10407735;28;20033;-71
2022/10/21 10:03:29;;;;;;;9.95;9.27;;;;;;;13.05;70.05;99582.41;10397019;28;20085;-71
2022/10/21 10:08:42;;;;;;;11.30;10.23;;;;;;;13.47;68.65;99575.13;10414482;28;20067;-71
2022/10/21 10:13:51;;;;;;;8.75;8.02;;;;;;;13.81;65.79;99577.72;10397390;28;20125;-71
2022/10/21 10:19:26;;;;;;;9.82;8.90;;;;;;;13.84;67.01;99569.63;10413276;28;20049;-71
2022/10/21 10:24:30;;;;;;;9.93;7.80;;;;;;;13.76;66.83;99568.31;10409603;28;20110;-71
2022/10/21 10:29:33;;;;;;;8.93;8.13;;;;;;;13.50;67.63;99557.34;10413227;28;20056;-71
2022/10/21 10:34:38;;;;;;;9.48;8.68;;;;;;;13.60;67.55;99568.28;10412899;28;20097;-71
2022/10/21 10:39:41;;;;;;;10.20;8.93;;;;;;;13.66;68.49;99556.53;10562771;23;20043;-71
2022/10/21 10:44:44;;;;;;;10.35;9.35;;;;;;;13.67;68.34;99558.25;10626951;27;20095;-71
2022/10/21 10:49:46;;;;;;;8.65;8.05;;;;;;;13.81;67.60;99555.72;10627237;27;20039;-71
2022/10/21 10:55:08;;;;;;;9.43;8.63;;;;;;;13.97;67.43;99556.63;10626294;27;20515;-71
2022/10/21 11:00:21;;;;;;;11.95;9.38;;;;;;;14.39;64.97;99548.16;10608969;27;20055;-72
2022/10/21 11:05:49;;;;;;;9.85;8.75;;;;;;;14.67;64.65;99551.09;10627426;27;20117;-70
2022/10/21 11:10:55;;;;;;;9.35;8.63;;;;;;;15.13;63.69;99549.31;10623110;27;20051;-70
2022/10/21 11:16:24;;;;;;;9.27;8.50;;;;;;;15.83;61.68;99544.28;10626836;27;20063;-71
2022/10/21 11:21:38;;;;;;;9.55;8.75;;;;;;;15.70;61.56;99540.69;10626605;27;20039;-71
2022/10/21 11:26:52;;;;;;;9.13;8.52;;;;;;;15.49;62.49;99530.38;10607260;27;20077;-72
2022/10/21 11:32:22;;;;;;;9.98;9.20;;;;;;;15.39;63.05;99523.94;10625988;27;20050;-70
2022/10/21 11:37:48;;;;;;;11.75;10.60;;;;;;;15.22;63.49;99516.16;10608134;27;20050;-70
2022/10/21 11:42:51;;;;;;;12.10;11.10;;;;;;;15.17;64.18;99518.22;10623350;28;20043;-70
2022/10/21 11:48:05;;;;;;;11.90;10.90;;;;;;;15.29;63.95;99506.91;10604487;28;20039;-70
2022/10/21 11:53:44;;;;;;;12.35;11.50;;;;;;;15.18;64.24;99510.16;10623951;28;20047;-70
2022/10/21 11:59:09;;;;;;;14.18;12.98;;;;;;;15.20;64.29;99510.09;10624577;28;20043;-70
2022/10/21 12:04:23;;;;;;;14.82;13.82;;;;;;;15.36;65.27;99502.94;10605164;28;20092;-70
2022/10/21 12:09:52;;;;;;;14.73;13.43;;;;;;;15.33;64.67;99516.38;10605057;28;20039;-70
2022/10/21 12:14:57;;;;;;;16.50;15.02;;;;;;;15.30;65.18;99522.69;10623750;28;20043;-70
2022/10/21 12:20:15;;;;;;;16.25;15.15;;;;;;;15.16;65.22;99532.41;10622302;28;20050;-70
2022/10/21 12:25:54;;;;;;;17.95;16.33;;;;;;;15.01;66.55;99528.88;10622340;28;20131;-70
2022/10/21 12:31:04;;;;;;;18.25;16.95;;;;;;;14.96;65.93;99526.47;10604127;28;20047;-70
2022/10/21 12:36:23;;;;;;;19.13;17.73;;;;;;;14.78;68.40;99533.66;10617159;28;131542;-70
2022/10/21 12:41:36;;;;;;;20.40;18.65;;;;;;;14.69;69.71;99528.03;10591804;28;20519;-70
2022/10/21 12:46:48;;;;;;;20.90;19.20;;;;;;;14.48;72.63;99548.59;10624137;27;20043;-70
2022/10/21 12:51:56;;;;;;;22.23;20.08;;;;;;;14.33;74.71;99542.34;10632268;27;20047;-70
2022/10/21 12:57:01;;;;;;;22.42;20.65;;;;;;;13.94;80.83;99546.22;10613024;27;20074;-69
2022/10/21 13:02:08;;;;;;;27.60;20.58;;;;;;;13.61;84.83;99543.56;10631298;27;20068;-69
2022/10/21 13:07:13;;;;;;;26.13;24.10;;;;;;;13.27;91.35;99550.56;10631917;27;20069;-70
2022/10/21 13:12:25;;;;;;;26.48;24.48;;;;;;;13.07;92.72;99562.09;10631846;27;20434;-71
2022/10/21 13:17:46;;;;;;;27.23;24.50;;;;;;;12.75;96.24;99568.06;10631602;27;20096;-70
2022/10/21 13:22:56;;;;;;;29.25;26.83;;;;;;;12.61;100.00;99553.75;10631912;27;20400;-70
2022/10/21 13:28:11;;;;;;;36.08;32.35;;;;;;;12.35;99.79;99559.41;10631279;27;20507;-71
2022/10/21 13:33:19;;;;;;;34.58;31.08;;;;;;;12.18;100.00;99567.28;10630717;27;20039;-70
2022/10/21 13:38:27;;;;;;;36.13;32.40;;;;;;;12.04;100.00;99573.13;10631289;27;20069;-71
2022/10/21 13:43:38;;;;;;;36.78;32.90;;;;;;;11.90;100.00;99565.00;10632495;27;20492;-71
2022/10/21 13:48:47;;;;;;;36.60;33.10;;;;;;;11.71;100.00;99567.56;10630983;27;20066;-71
2022/10/21 13:53:53;;;;;;;39.60;35.70;;;;;;;11.61;100.00;99570.59;10631687;27;20111;-71
2022/10/21 13:58:55;;;;;;;40.63;36.50;;;;;;;11.37;100.00;99575.13;10611372;27;20413;-71
2022/10/21 14:04:16;;;;;;;43.17;37.25;;;;;;;11.31;100.00;99550.88;10630412;27;20043;-69
2022/10/21 14:09:32;;;;;;;41.75;37.22;;;;;;;11.27;100.00;99560.66;10630177;27;20076;-69
2022/10/21 14:14:37;;;;;;;41.45;37.45;;;;;;;11.13;100.00;99572.69;10629230;27;20051;-70
2022/10/21 14:19:39;;;;;;;40.85;36.67;;;;;;;11.11;100.00;99555.19;10629574;27;20039;-70
2022/10/21 14:24:46;;;;;;;40.58;36.85;;;;;;;11.14;100.00;99559.47;10630817;27;20084;-70
2022/10/21 14:29:48;;;;;;;38.50;34.22;;;;;;;11.09;100.00;99550.91;10629020;27;20039;-70
2022/10/21 14:35:12;;;;;;;34.78;31.67;;;;;;;10.92;100.00;99556.84;10630253;27;20541;-70
2022/10/21 14:40:30;;;;;;;33.85;30.70;;;;;;;10.90;100.00;99565.75;10623744;27;20081;-70
2022/10/21 14:45:36;;;;;;;33.53;30.65;;;;;;;11.01;100.00;99555.63;10633807;27;20092;-70
2022/10/21 14:50:40;;;;;;;31.65;29.13;;;;;;;11.01;100.00;99560.88;10629634;27;20039;-70
2022/10/21 14:55:43;;;;;;;30.95;28.35;;;;;;;11.07;100.00;99560.66;10629889;27;20412;-70
2022/10/21 15:00:45;;;;;;;30.05;27.70;;;;;;;10.89;100.00;99564.91;10610932;27;20043;-69
2022/10/21 15:05:47;;;;;;;30.17;27.65;;;;;;;10.96;100.00;99576.00;10630268;27;20050;-69
2022/10/21 15:10:55;;;;;;;29.30;26.77;;;;;;;10.96;100.00;99597.03;10628398;27;20116;-70
2022/10/21 15:15:59;;;;;;;31.33;28.63;;;;;;;10.93;100.00;99595.38;10609604;27;20049;-70
2022/10/21 15:21:02;;;;;;;30.83;28.27;;;;;;;10.96;100.00;99592.63;10628425;27;20086;-70
2022/10/21 15:26:17;;;;;;;30.05;27.75;;;;;;;10.98;100.00;99555.75;10609123;27;20488;-71
2022/10/21 15:31:22;;;;;;;27.38;25.58;;;;;;;11.01;100.00;99561.75;10609371;27;20134;-71
2022/10/21 15:36:24;;;;;;;24.67;23.08;;;;;;;11.01;100.00;99550.38;10627607;27;20035;-70
2022/10/21 15:41:28;;;;;;;22.92;21.35;;;;;;;11.10;100.00;99547.34;10626868;27;20130;-70
2022/10/21 15:46:44;;;;;;;23.00;21.23;;;;;;;10.93;100.00;99545.41;10608160;27;20111;-70
2022/10/21 15:51:48;;;;;;;21.92;20.50;;;;;;;10.95;100.00;99533.06;10626975;27;20079;-70
2022/10/21 15:56:54;;;;;;;20.98;19.42;;;;;;;10.78;100.00;99535.53;10607915;27;20408;-70
2022/10/21 16:01:56;;;;;;;20.80;19.25;;;;;;;10.66;100.00;99543.91;10627726;28;20047;-70
2022/10/21 16:06:58;;;;;;;21.38;19.98;;;;;;;10.59;100.00;99559.94;10608101;28;20416;-70
2022/10/21 16:12:00;;;;;;;21.20;19.80;;;;;;;10.57;100.00;99556.50;10607978;28;20051;-70
2022/10/21 16:17:02;;;;;;;19.00;17.80;;;;;;;10.47;100.00;99572.69;10607380;28;20031;-71
2022/10/21 16:22:24;;;;;;;20.27;18.77;;;;;;;10.43;100.00;99592.13;10627855;27;20117;-70
2022/10/21 16:27:25;;;;;;;19.02;17.55;;;;;;;10.50;100.00;99569.94;10635503;27;20046;-71
2022/10/21 16:32:48;;;;;;;19.25;17.70;;;;;;;10.47;100.00;99556.91;10634181;27;20556;-70
2022/10/21 16:37:50;;;;;;;20.60;19.25;;;;;;;10.38;100.00;99579.16;10633845;27;20065;-70
2022/10/21 16:42:53;;;;;;;22.05;20.55;;;;;;;10.23;100.00;99569.22;10635370;27;20081;-71
2022/10/21 16:47:57;;;;;;;21.80;20.33;;;;;;;10.21;100.00;99587.63;10635167;27;20442;-71
2022/10/21 16:53:01;;;;;;;23.45;21.85;;;;;;;10.11;100.00;99576.63;10634856;27;20076;-72
2022/10/21 16:58:02;;;;;;;23.00;21.40;;;;;;;10.14;100.00;99580.03;10633384;27;20046;-70
2022/10/21 17:03:04;;;;;;;24.25;22.45;;;;;;;10.14;100.00;99578.28;10633950;27;20047;-71
2022/10/21 17:08:06;;;;;;;25.95;23.85;;;;;;;10.13;100.00;99570.44;10633535;27;20069;-70
2022/10/21 17:13:08;;;;;;;25.75;24.00;;;;;;;10.18;100.00;99573.75;10633694;27;20474;-71
2022/10/21 17:18:10;;;;;;;26.95;24.95;;;;;;;10.06;100.00;99564.59;10632599;27;20043;-71
2022/10/21 17:23:16;;;;;;;26.73;24.43;;;;;;;10.12;100.00;99564.34;10617199;27;20047;-70
2022/10/21 17:28:18;;;;;;;26.48;24.52;;;;;;;10.04;100.00;99567.25;10633833;27;20552;-71
2022/10/21 17:33:19;;;;;;;27.10;24.88;;;;;;;10.11;100.00;99565.25;10615384;27;20047;-71
2022/10/21 17:38:21;;;;;;;25.58;23.77;;;;;;;9.93;100.00;99571.19;10614810;27;20032;-72
2022/10/21 17:43:23;;;;;;;25.38;23.23;;;;;;;10.04;100.00;99574.25;10633631;27;20047;-71
2022/10/21 17:48:25;;;;;;;23.23;21.73;;;;;;;9.92;100.00;99578.22;10632186;27;20038;-71
2022/10/21 17:53:29;;;;;;;23.40;21.75;;;;;;;10.11;100.00;99579.25;10631839;27;20043;-71
2022/10/21 17:58:31;;;;;;;22.02;20.42;;;;;;;10.08;100.00;99568.84;10613527;27;20050;-71
2022/10/21 18:03:33;;;;;;;22.98;21.35;;;;;;;10.00;100.00;99575.28;10613353;27;20082;-71
2022/10/21 18:08:36;;;;;;;23.35;21.60;;;;;;;10.13;100.00;99570.44;10615024;27;20444;-71
2022/10/21 18:13:39;;;;;;;25.42;23.55;;;;;;;10.30;100.00;99573.31;10633530;27;20411;-71
2022/10/21 18:18:41;;;;;;;21.88;20.38;;;;;;;10.39;100.00;99556.34;10633697;27;20062;-71
2022/10/21 18:23:49;;;;;;;;;;;;;;;10.28;100.00;99549.75;10615278;27;20057;-71
2022/10/21 18:28:55;;;;;;;21.65;19.92;;;;;;;10.08;100.00;99546.97;10633155;27;19919;-72
2022/10/21 18:33:59;;;;;;;21.55;20.08;;;;;;;9.96;100.00;99543.06;10633774;27;20042;-71
2022/10/21 18:39:01;;;;;;;21.27;19.88;;;;;;;10.18;100.00;99540.50;10630819;27;20088;-72
2022/10/21 18:44:07;;;;;;;21.25;19.88;;;;;;;10.15;100.00;99550.25;10630833;27;20047;-71
2022/10/21 18:49:14;;;;;;;23.63;21.83;;;;;;;10.27;100.00;99536.66;10573666;28;20047;-71
2022/10/21 18:54:16;;;;;;;23.58;21.90;;;;;;;10.25;100.00;99525.38;10630393;27;20060;-72
2022/10/21 18:59:17;;;;;;;24.17;22.00;;;;;;;10.23;100.00;99529.81;10630150;27;20500;-71
2022/10/21 19:04:19;;;;;;;24.92;23.20;;;;;;;10.25;100.00;99517.50;10630855;27;20039;-71
2022/10/21 19:09:26;;;;;;;26.48;24.40;;;;;;;10.15;100.00;99518.72;10629205;27;20035;-72
2022/10/21 19:14:28;;;;;;;26.58;24.08;;;;;;;10.13;100.00;99516.16;10576440;28;20036;-71
2022/10/21 19:19:30;;;;;;;25.65;23.40;;;;;;;10.17;100.00;99517.75;10570718;28;20036;-72
2022/10/21 19:24:37;;;;;;;26.13;24.00;;;;;;;10.21;100.00;99515.88;10580478;27;20079;-72
2022/10/21 19:29:39;;;;;;;25.50;23.65;;;;;;;10.17;100.00;99530.88;10611719;27;20084;-71
2022/10/21 19:34:42;;;;;;;27.58;25.23;;;;;;;10.09;100.00;99530.31;10612830;27;20381;-72
2022/10/21 19:39:44;;;;;;;28.73;26.23;;;;;;;10.10;100.00;99532.03;10632458;27;20048;-71
2022/10/21 19:44:46;;;;;;;28.50;26.05;;;;;;;9.96;100.00;99543.06;10630999;27;20051;-71
2022/10/21 19:49:48;;;;;;;31.10;28.50;;;;;;;9.79;100.00;99530.56;10631957;27;20076;-71
2022/10/21 19:54:51;;;;;;;28.70;26.60;;;;;;;9.75;100.00;99535.97;10636223;27;20426;-71
2022/10/21 19:59:53;;;;;;;34.40;30.05;;;;;;;10.22;100.00;99534.19;10633634;27;20412;-72
2022/10/21 20:04:54;;;;;;;31.05;28.15;;;;;;;10.38;100.00;99533.63;10614842;28;20047;-72
2022/10/21 20:09:56;;;;;;;31.60;28.88;;;;;;;10.16;100.00;99542.31;10634417;28;20047;-71
2022/10/21 20:14:58;;;;;;;32.28;29.52;;;;;;;9.84;100.00;99554.00;10619616;28;20043;-72
2022/10/21 20:20:00;;;;;;;32.05;28.85;;;;;;;9.68;100.00;99548.44;10615509;28;20035;-72
2022/10/21 20:25:03;;;;;;;34.28;29.27;;;;;;;9.76;100.00;99548.19;10633584;28;20126;-71
2022/10/21 20:30:06;;;;;;;34.25;30.67;;;;;;;9.81;100.00;99552.34;10636891;28;20183;-74
2022/10/21 20:35:08;;;;;;;37.92;31.70;;;;;;;10.09;100.00;99559.19;10635685;28;20047;-72
2022/10/21 20:40:14;;;;;;;34.75;31.38;;;;;;;9.98;100.00;99562.22;10638356;28;20482;-73
2022/10/21 20:45:17;;;;;;;35.08;31.48;;;;;;;10.08;100.00;99562.75;10640186;28;20130;-73
2022/10/21 20:50:19;;;;;;;40.70;33.03;;;;;;;10.36;100.00;99544.22;10636380;28;20043;-72
2022/10/21 20:55:21;;;;;;;40.33;32.30;;;;;;;10.38;100.00;99552.88;10633678;28;20066;-73
2022/10/21 21:00:22;;;;;;;37.95;31.15;;;;;;;10.31;100.00;99549.66;10626380;28;20119;-72
2022/10/21 21:05:24;;;;;;;35.25;30.98;;;;;;;10.48;100.00;99566.50;10607297;28;20156;-72
2022/10/21 21:10:25;;;;;;;35.45;31.65;;;;;;;10.39;100.00;99553.72;10611088;27;20051;-72
2022/10/21 21:15:27;;;;;;;33.95;30.35;;;;;;;10.38;100.00;99554.66;10631917;27;20047;-72
2022/10/21 21:20:30;;;;;;;34.63;30.90;;;;;;;10.24;100.00;99568.28;10614025;27;20039;-72
2022/10/21 21:25:31;;;;;;;34.67;31.05;;;;;;;10.39;100.00;99556.34;10631568;27;20045;-72
2022/10/21 21:30:33;;;;;;;39.67;32.53;;;;;;;10.21;100.00;99548.22;10612902;27;20046;-72
2022/10/21 21:35:35;;;;;;;37.78;32.67;;;;;;;10.36;100.00;99557.34;10630997;27;20046;-73
2022/10/21 21:40:36;;;;;;;34.38;30.58;;;;;;;10.25;100.00;99560.38;10630932;27;20070;-72
2022/10/21 21:45:38;;;;;;;37.40;32.80;;;;;;;10.05;100.00;99562.88;10630579;27;20043;-73
2022/10/21 21:50:40;;;;;;;43.67;33.50;;;;;;;9.91;100.00;99573.84;10629883;27;20099;-72
2022/10/21 21:55:42;;;;;;;44.35;33.13;;;;;;;10.06;100.00;99575.09;10629916;27;20077;-72
2022/10/21 22:00:44;;;;;;;48.75;34.55;;;;;;;10.25;100.00;99576.13;10612394;27;20066;-72
2022/10/21 22:05:45;;;;;;;42.83;34.03;;;;;;;10.08;100.00;99568.00;10632056;27;20039;-72
2022/10/21 22:10:47;;;;;;;42.35;33.42;;;;;;;10.18;100.00;99561.50;10629017;27;20042;-72
2022/10/21 22:15:49;;;;;;;46.67;33.85;;;;;;;9.94;100.00;99552.75;10629024;27;20100;-72
2022/10/21 22:20:50;;;;;;;45.58;35.60;;;;;;;10.13;100.00;99559.94;10628764;27;20042;-71
2022/10/21 22:25:52;;;;;;;49.92;36.65;;;;;;;9.84;100.00;99552.25;10629229;27;20051;-70
2022/10/21 22:30:59;;;;;;;63.85;39.55;;;;;;;10.05;100.00;99568.13;10629348;27;20496;-69
2022/10/21 22:36:04;;;;;;;48.88;36.58;;;;;;;9.98;100.00;99570.09;10630494;27;20072;-73
2022/10/21 22:41:05;;;;;;;47.90;35.80;;;;;;;9.89;100.00;99553.84;10611631;27;20508;-71
2022/10/21 22:46:12;;;;;;;53.40;37.20;;;;;;;9.94;100.00;99554.53;10611928;27;20087;-72
2022/10/21 22:51:33;;;;;;;53.42;36.08;;;;;;;9.87;100.00;99548.63;10613571;27;20046;-72
2022/10/21 22:56:35;;;;;;;54.13;37.95;;;;;;;10.15;100.00;99540.59;10629570;27;20374;-72
2022/10/21 23:01:36;;;;;;;48.85;36.33;;;;;;;10.09;100.00;99536.44;10628078;27;20055;-72
2022/10/21 23:06:38;;;;;;;47.05;35.83;;;;;;;9.95;100.00;99543.94;10609431;27;20043;-72
2022/10/21 23:11:40;;;;;;;44.85;35.42;;;;;;;10.03;100.00;99539.28;10628220;27;20126;-72
2022/10/21 23:16:42;;;;;;;43.67;34.58;;;;;;;10.03;100.00;99528.78;10627170;27;20047;-72